PWM weather

Portland International Jetport
Portland, Maine, United States

Public forecast

Using degrees Fahrenheit for public forecast. Weather courtesy of forecast.io.

Current aviation weather report (METAR) for Portland International Jetport

Retrieved 2020/07/04 04:27 UTC (3 seconds ago):

KPWM 040427Z AUTO 06003KT 10SM FEW011 OVC018 17/14 A2995 RMK AO2 T01720139

Aviation forecast (TAF) for Portland International Jetport

Retrieved 2020-07-04 00:24 UTC (4 hours ago):

TAF KPWM 032320Z 0400/0424 09008KT P6SM BKN008 OVC025 FM040600 05003KT 2SM BR BKN003 OVC008 FM041500 15007KT P6SM FEW250